Latest Weather Observations for Point Stuart

IDD60901

Issued at 4:25 pm CST Wednesday 23 April 2014 (issued every 10 minutes, with the page automatically refreshed every 10 minutes)

About weather observations | Map of Darwin area stations | Latest observations for Darwin area | Other Formats
Station Details ID: 014254 Name: POINT STUART Lat: -12.24 Lon: 131.88 Height: 1.0 m
Data from the previous 72 hours. | See also: Recent months for locations in Northern Territory
Date/Time
CST
Tmp

°C
App
Tmp
°C
Dew
Point
°C
Rel
Hum
%
Delta-T

°C
Wind Press
QNH
hPa
Press
MSL
hPa
Rain
since
9 am
mm
Dir
 
Spd
km/h
Gust
km/h
Spd
kts
Gust
kts
23/04:00pm 31.6 36.0 23.4 61 5.7 ENE 6 9 3 5 1004.7 - 0.0
23/03:30pm 31.2 34.6 24.1 66 4.9 NE 13 20 7 11 1004.9 - 0.0
23/03:00pm 30.7 34.7 24.4 69 4.4 NNE 11 17 6 9 1005.5 1005.5 0.0
23/02:30pm 30.1 33.4 23.8 69 4.4 NNE 13 20 7 11 1005.8 - 0.0
23/02:00pm 30.6 33.6 24.0 68 4.6 NNE 15 22 8 12 1006.3 - 0.0
23/01:30pm 30.8 33.8 24.7 70 4.3 NE 17 24 9 13 1006.7 - 0.0
23/01:00pm 30.8 34.6 24.7 70 4.3 NE 13 20 7 11 1007.0 - 0.0
23/12:30pm 30.3 33.0 24.2 70 4.2 NE 17 26 9 14 1007.2 - 0.0
23/12:00pm 31.2 34.1 25.1 70 4.3 ENE 19 26 10 14 1007.5 1007.5 0.0
23/11:30am 30.6 32.2 23.8 67 4.7 E 22 30 12 16 1008.0 - 0.0
23/11:00am 30.3 33.4 24.2 70 4.2 SE 15 22 8 12 1008.4 - 0.0
23/10:30am 29.8 32.2 23.7 70 4.2 SE 17 24 9 13 1008.7 - 0.0
23/10:00am 29.1 31.0 23.8 73 3.7 SSE 20 28 11 15 1009.0 - 0.0
23/09:30am 29.0 31.5 23.2 71 4.0 SSE 15 22 8 12 1009.1 - 0.0
23/09:00am 28.2 30.8 22.7 72 3.7 SSE 13 20 7 11 1009.1 1009.1 0.0
23/08:30am 27.2 30.8 23.7 81 2.4 S 11 15 6 8 1008.9 - 0.0
23/08:00am 25.9 29.6 23.9 89 1.4 S 11 15 6 8 1008.8 - 0.0
23/07:30am 24.9 29.2 24.2 96 0.5 S 9 13 5 7 1008.6 - 0.0
23/07:00am 24.1 28.3 24.1 100 0.0 S 9 11 5 6 1008.5 - 0.0
23/06:30am 23.7 28.2 23.7 100 0.0 S 6 7 3 4 1008.4 - 0.0
23/06:00am 23.3 27.4 23.0 98 0.2 SSW 6 7 3 4 1008.2 1008.2 0.0
23/05:30am 24.0 28.4 23.5 97 0.3 SSE 6 7 3 4 1007.9 - 0.0
23/05:00am 23.9 27.6 23.2 96 0.5 SE 9 11 5 6 1007.7 - 0.0
23/04:30am 24.1 27.4 23.2 95 0.6 SE 11 13 6 7 1007.8 - 0.0
23/04:00am 24.1 29.6 24.1 100 0.0 ENE 2 9 1 5 1007.9 - 0.0
23/03:30am 23.9 29.0 22.7 93 0.8 CALM 0 0 0 0 1007.8 - 0.0
23/03:00am 24.0 28.4 22.8 93 0.8 NE 4 6 2 3 1007.8 1007.8 0.0
23/02:30am 24.6 29.0 23.4 93 0.8 SSE 6 7 3 4 1007.6 - 0.0
23/02:00am 25.1 29.9 23.5 91 1.1 SE 4 6 2 3 1007.8 - 0.0
23/01:30am 25.7 29.8 23.9 90 1.2 SE 9 9 5 5 1008.0 - 0.0
23/01:00am 26.4 30.5 24.6 90 1.2 SE 11 13 6 7 1008.4 - 0.0
23/12:30am 27.4 32.0 26.0 92 1.0 ENE 13 17 7 9 1008.9 - 0.0
23/12:00am 25.8 30.0 23.5 87 1.6 E 7 9 4 5 1009.4 1009.4 0.0
 
Date/Time
CST
Tmp

°C
App
Tmp
°C
Dew
Point
°C
Rel
Hum
%
Delta-T

°C
Wind Press
QNH
hPa
Press
MSL
hPa
Rain
since
9 am
mm
Dir
 
Spd
km/h
Gust
km/h
Spd
kts
Gust
kts
22/11:30pm 25.6 28.9 22.5 83 2.1 E 9 11 5 6 1009.7 - 0.0
22/11:00pm 25.9 28.4 21.8 78 2.7 E 11 13 6 7 1009.9 - 0.0
22/10:30pm 26.8 29.1 21.3 72 3.7 ESE 11 15 6 8 1009.8 - 0.0
22/10:00pm 27.0 29.6 22.0 74 3.4 SE 11 13 6 7 1009.4 - 0.0
22/09:30pm 27.3 29.7 21.6 71 3.8 SE 11 13 6 7 1008.9 - 0.0
22/09:00pm 27.8 29.7 21.3 67 4.3 SE 13 15 7 8 1008.2 1008.2 0.0
22/08:30pm 28.0 31.0 22.7 73 3.6 SE 11 13 6 7 1008.4 - 0.0
22/08:00pm 28.4 31.5 22.2 69 4.2 ESE 9 11 5 6 1008.6 - 0.0
22/07:30pm 28.7 31.4 22.2 68 4.4 ESE 11 11 6 6 1008.2 - 0.0
22/07:00pm 29.0 31.5 21.7 64 4.9 ESE 11 13 6 7 1007.8 - 0.0
22/06:30pm 29.3 31.8 21.8 64 5.0 E 11 15 6 8 1007.5 - 0.0
22/06:00pm 30.7 32.2 21.2 57 6.4 E 15 20 8 11 1007.1 1007.1 0.0
22/05:30pm 31.1 32.8 21.6 57 6.4 ESE 15 20 8 11 1006.8 - 0.0
22/05:00pm 31.2 33.0 21.1 55 6.8 ESE 13 20 7 11 1006.5 - 0.0
22/04:30pm 31.4 33.3 22.1 57 6.3 ESE 15 20 8 11 1006.2 - 0.0
22/04:00pm 31.4 32.0 21.0 54 7.0 ESE 19 26 10 14 1006.0 - 0.0
22/03:30pm 31.3 31.5 20.6 53 7.1 ESE 20 30 11 16 1006.1 - 0.0
22/03:00pm 31.4 31.5 20.4 52 7.3 ESE 20 30 11 16 1006.3 1006.3 0.0
22/02:30pm 31.4 30.9 20.0 50 7.5 ESE 22 35 12 19 1006.5 - 0.0
22/02:00pm 31.8 31.4 21.0 52 7.2 SE 24 37 13 20 1007.0 - 0.0
22/01:30pm 31.9 33.0 22.3 56 6.5 SE 20 28 11 15 1007.7 - 0.0
22/01:00pm 32.1 34.6 23.1 59 6.2 SE 15 20 8 11 1008.1 - 0.0
22/12:30pm 31.3 33.6 23.4 63 5.5 SSE 17 26 9 14 1008.6 - 0.0
22/12:00pm 31.1 33.3 23.2 63 5.4 E 17 24 9 13 1009.3 1009.3 0.0
22/11:30am 30.9 33.1 23.3 64 5.2 E 17 24 9 13 1009.9 - 0.0
22/11:00am 30.5 32.3 23.2 65 5.0 ESE 19 26 10 14 1010.6 - 0.0
22/10:30am 29.7 31.6 22.7 66 4.8 ESE 17 26 9 14 1011.0 - 0.0
22/10:00am 29.1 30.8 23.1 70 4.1 ESE 19 26 10 14 1011.0 - 0.0
22/09:30am 28.1 29.2 22.3 70 3.9 ESE 20 32 11 17 1011.1 - 0.0
22/09:00am 27.6 29.3 22.3 73 3.6 ESE 17 22 9 12 1011.0 1011.0 0.0
22/08:30am 26.9 29.6 22.9 79 2.7 ESE 13 17 7 9 1011.0 - 0.0
22/08:00am 25.5 28.5 23.4 88 1.4 ESE 13 19 7 10 1010.8 - 0.0
22/07:30am 24.2 28.7 23.9 98 0.2 SE 7 9 4 5 1010.6 - 0.0
22/07:00am 23.9 28.1 23.4 97 0.3 SE 7 9 4 5 1010.2 - 0.0
22/06:30am 24.2 28.2 23.7 97 0.3 SSE 9 11 5 6 1009.8 - 0.0
22/06:00am 24.4 28.5 23.9 97 0.3 SSE 9 11 5 6 1009.5 1009.5 0.0
22/05:30am 24.7 29.3 24.7 100 0.0 S 9 11 5 6 1009.3 - 0.0
22/05:00am 24.9 30.0 24.9 100 0.0 S 7 9 4 5 1009.0 - 0.0
22/04:30am 25.0 30.3 25.0 100 0.0 S 6 7 3 4 1008.9 - 0.0
22/04:00am 25.2 30.6 25.2 100 0.0 S 6 7 3 4 1008.9 - 0.0
22/03:30am 25.2 30.1 25.2 100 0.0 S 9 9 5 5 1008.8 - 0.0
22/03:00am 24.8 29.4 24.1 96 0.5 S 7 9 4 5 1008.9 1008.9 0.0
22/02:30am 25.3 30.1 24.4 95 0.6 SE 7 9 4 5 1008.9 - 0.0
22/02:00am 25.6 30.6 25.4 99 0.1 S 9 9 5 5 1009.1 - 0.0
22/01:30am 25.7 31.0 25.2 97 0.3 S 7 9 4 5 1009.5 - 0.0
22/01:00am 25.9 30.9 25.4 97 0.3 SSE 9 11 5 6 1009.8 - 0.0
22/12:30am 26.1 31.9 25.1 94 0.7 S 4 7 2 4 1010.0 - 0.0
22/12:00am 26.6 31.7 25.0 91 1.1 SSE 7 11 4 6 1010.2 1010.2 0.0
 
Date/Time
CST
Tmp

°C
App
Tmp
°C
Dew
Point
°C
Rel
Hum
%
Delta-T

°C
Wind Press
QNH
hPa
Press
MSL
hPa
Rain
since
9 am
mm
Dir
 
Spd
km/h
Gust
km/h
Spd
kts
Gust
kts
21/11:30pm 27.2 31.7 24.6 86 1.8 ESE 9 11 5 6 1010.2 - 0.0
21/11:00pm 27.7 31.1 24.7 84 2.1 ENE 15 19 8 10 1010.3 - 0.0
21/10:30pm 28.0 31.6 26.4 91 1.1 ENE 20 24 11 13 1010.3 - 0.0
21/10:00pm 26.7 34.1 26.5 99 0.1 CALM 0 0 0 0 1010.0 - 0.0
21/09:30pm 26.4 32.0 25.4 94 0.7 SSW 6 9 3 5 1009.9 - 0.0
21/09:00pm 27.0 34.4 26.5 97 0.4 CALM 0 0 0 0 1009.8 1009.8 0.0
21/08:30pm 27.1 33.7 26.4 96 0.5 ESE 4 6 2 3 1009.5 - 0.0
21/08:00pm 27.2 33.1 25.4 90 1.3 ESE 4 6 2 3 1009.4 - 0.0
21/07:30pm 27.4 33.7 24.7 85 1.9 CALM 0 6 0 3 1009.2 - 0.0
21/07:00pm 27.9 33.8 25.3 86 1.8 SE 4 6 2 3 1009.0 - 0.0
21/06:30pm 28.9 33.7 22.9 70 4.1 NE 2 6 1 3 1008.8 - 0.0
21/06:00pm 30.0 34.1 22.9 65 4.9 NE 6 9 3 5 1008.5 1008.5 0.0
21/05:30pm 31.0 33.8 22.3 60 5.9 NE 11 13 6 7 1008.4 - 0.0
21/05:00pm 31.5 34.2 22.8 60 6.0 NE 13 20 7 11 1008.1 - 0.0
21/04:30pm 31.8 34.7 23.1 60 6.0 NE 13 19 7 10 1008.0 - 0.0
21/04:00pm 31.9 33.7 22.6 58 6.4 NE 17 24 9 13 1008.1 - 0.0
21/03:30pm 31.8 33.6 21.9 55 6.7 NE 15 20 8 11 1008.0 - 0.0
21/03:00pm 31.4 33.6 23.2 61 5.7 ENE 17 22 9 12 1007.9 1007.9 0.0
21/02:30pm 30.8 32.8 22.9 62 5.4 NE 17 20 9 11 1008.2 - 0.0
21/02:00pm 30.4 32.5 23.1 65 5.0 NE 17 20 9 11 1008.6 - 0.0
21/01:30pm 30.4 31.7 22.3 62 5.5 ENE 19 24 10 13 1008.9 - 0.0
21/01:00pm 30.5 31.8 22.7 63 5.3 NE 20 28 11 15 1009.1 - 0.0
21/12:30pm 30.5 32.7 23.2 65 5.0 ENE 17 24 9 13 1009.5 - 0.0
21/12:00pm 30.1 31.2 22.3 63 5.3 E 20 26 11 14 1009.8 1009.8 0.0
21/11:30am 30.0 30.5 21.9 62 5.5 E 22 30 12 16 1010.2 - 0.0
21/11:00am 29.8 29.8 21.7 61 5.4 E 24 33 13 18 1010.4 - 0.0
21/10:30am 29.0 30.3 22.7 69 4.3 E 20 30 11 16 1010.7 - 0.0
21/10:00am 28.6 29.3 21.6 66 4.7 E 20 28 11 15 1010.7 - 0.0
21/09:30am 27.9 29.2 22.4 72 3.7 E 19 24 10 13 1010.5 - 0.0
21/09:00am 26.9 28.7 22.5 77 3.0 ESE 17 22 9 12 1010.4 1010.4 0.0
21/08:30am 25.9 28.7 23.0 84 2.0 SE 13 22 7 12 1010.2 - 0.0
21/08:00am 25.0 27.9 23.1 89 1.3 SE 13 15 7 8 1010.1 - 0.0
21/07:30am 23.9 27.4 22.9 94 0.7 ESE 9 11 5 6 1009.7 - 0.0
21/07:00am 23.3 27.2 22.6 96 0.5 SE 6 7 3 4 1009.4 - 0.0
21/06:30am 23.4 27.0 22.4 94 0.7 ESE 7 11 4 6 1009.2 - 0.0
21/06:00am 23.8 26.9 22.1 90 1.1 ESE 9 13 5 7 1008.9 1008.9 0.0
21/05:30am 24.0 26.7 22.1 89 1.3 SE 11 15 6 8 1008.8 - 0.0
21/05:00am 24.0 26.9 22.4 91 1.1 SE 11 13 6 7 1008.6 - 0.0
21/04:30am 24.0 27.6 23.0 94 0.7 SE 9 11 5 6 1008.6 - 0.0
21/04:00am 24.1 27.7 23.1 94 0.7 SE 9 13 5 7 1008.7 - 0.0
21/03:30am 24.2 27.9 23.2 94 0.7 SE 9 13 5 7 1008.7 - 0.0
21/03:00am 24.4 28.6 23.4 94 0.7 SE 7 9 4 5 1008.8 1008.8 0.0
21/02:30am 24.7 28.8 23.3 92 0.9 SE 7 9 4 5 1008.9 - 0.0
21/02:00am 25.3 28.9 23.0 87 1.6 ESE 9 11 5 6 1009.0 - 0.0
21/01:30am 25.5 28.6 22.8 85 1.8 SE 11 15 6 8 1009.3 - 0.0
21/01:00am 25.5 28.6 22.8 85 1.8 SE 11 15 6 8 1009.6 - 0.0
21/12:30am 25.3 28.6 23.2 88 1.4 SE 11 13 6 7 1009.9 - 0.0
21/12:00am 25.8 28.9 22.9 84 2.0 SE 11 17 6 9 1009.9 1009.9 0.0
 
Date/Time
CST
Tmp

°C
App
Tmp
°C
Dew
Point
°C
Rel
Hum
%
Delta-T

°C
Wind Press
QNH
hPa
Press
MSL
hPa
Rain
since
9 am
mm
Dir
 
Spd
km/h
Gust
km/h
Spd
kts
Gust
kts
20/11:30pm 26.2 29.4 23.1 83 2.1 E 11 15 6 8 1010.1 - 0.0
20/11:00pm 26.6 29.2 23.3 82 2.2 ESE 15 20 8 11 1010.0 - 0.0
20/10:30pm 27.1 29.7 23.3 80 2.6 E 15 22 8 12 1010.2 - 0.0
20/10:00pm 27.4 28.4 22.8 76 3.1 E 22 33 12 18 1010.5 - 0.0
20/09:38pm 28.7 27.7 22.7 70 4.1 E 32 39 17 21 1010.8 - 0.0
20/09:30pm 28.0 32.1 24.6 82 2.4 E 11 17 6 9 1010.6 - 0.0
20/09:00pm 27.5 32.2 25.5 89 1.4 E 11 17 6 9 1010.0 1010.0 0.0
20/08:30pm 27.7 29.5 24.3 82 2.4 ENE 22 33 12 18 1009.6 - 0.0
20/08:20pm 28.1 28.6 23.9 78 2.9 ENE 28 41 15 22 1009.7 - 0.0
20/08:00pm 27.5 34.9 26.4 94 0.8 CALM 0 0 0 0 1009.1 - 0.0
20/07:30pm 27.7 33.1 23.3 77 3.0 CALM 0 6 0 3 1008.8 - 0.0
20/07:00pm 28.3 32.4 23.0 73 3.6 N 6 7 3 4 1008.4 - 0.0
20/06:30pm 29.5 34.6 22.7 67 4.6 CALM 0 0 0 0 1008.2 - 0.0
20/06:00pm 30.4 34.6 23.1 65 5.0 N 6 7 3 4 1007.8 1007.8 0.0
20/05:30pm 31.1 35.3 23.2 63 5.4 NNE 6 9 3 5 1007.6 - 0.0
20/05:00pm 31.3 35.2 22.9 61 5.8 N 7 13 4 7 1007.2 - 0.0
20/04:30pm 31.8 35.7 23.6 62 5.7 NNE 9 17 5 9 1007.1 - 0.0

Latest Capital City Observations: Canberra | Sydney | Melbourne | Brisbane | Adelaide | Perth | Hobart | Darwin

Other Formats:

Comma delimited format used in spreadsheet applications
http://www.bom.gov.au/fwo/IDD60901/IDD60901.94127.axf

JavaScript Object Notation format (JSON) in row-major order
http://www.bom.gov.au/fwo/IDD60901/IDD60901.94127.json